Latest Coastal Weather Observations for Port Kembla Harbour

IDN60701

Issued at 4:11 pm EST Monday 25 September 2017 (issued every 10 minutes, with the page automatically refreshed every 10 minutes)

About coastal observations | Map of coastal stations | Coastal observations for NSW | Marine services | Other Formats
Station Details ID: 068253 Name: PORT KEMBLA NTC AWS Lat: -34.47 Lon: 150.91 Height: 0.0 m
Data from the previous 72 hours. | See also: Recent months for locations in New South Wales
Date/Time
EST
Temp
°C
Wind Pressure Rain since
9am
mm
Weather Cloud Vis
km
Sea
Height
m
Swell
Dir  Spd
kts
Gust
kts
hPa Trend Height
m
Period
s
Dir
25/04:00pm 21.8 W 22 33 1006.6 - - - - - - - - -
25/03:30pm 22.1 W 21 32 1006.0 - - - - - - - - -
25/03:00pm 22.1 W 24 34 1005.5 - - - - - - - - -
25/02:33pm 22.2 W 25 36 1005.2 - - - - - - - - -
25/02:30pm 22.3 W 25 36 1005.1 - - - - - - - - -
25/02:00pm 22.7 W 27 37 1004.7 - - - - - - - - -
25/01:40pm 23.0 W 22 34 1004.7 - - - - - - - - -
25/01:30pm 23.0 W 22 31 1004.6 - - - - - - - - -
25/01:00pm 23.0 W 22 33 1004.5 - - - - - - - - -
25/12:40pm 22.9 W 24 36 1004.7 - - - - - - - - -
25/12:30pm 22.5 WNW 23 32 1004.6 - - - - - - - - -
25/12:00pm 22.8 W 24 35 1004.9 - - - - - - - - -
25/11:30am 22.7 W 21 33 1005.3 - - - - - - - - -
25/11:00am 22.1 W 23 35 1005.7 - - - - - - - - -
25/10:30am 21.6 W 23 37 1005.9 - - - - - - - - -
25/10:00am 21.4 W 24 35 1006.4 - - - - - - - - -
25/09:32am 21.1 W 24 39 1006.9 - - - - - - - - -
25/09:30am 21.0 W 24 32 1006.9 - - - - - - - - -
25/09:00am 20.5 W 17 30 1007.0 - - - - - - - - -
25/08:58am 20.5 W 17 28 1007.1 - - - - - - - - -
25/08:30am 19.9 W 11 19 1006.6 - - - - - - - - -
25/08:00am 19.1 W 9 15 1006.4 - - - - - - - - -
25/07:30am 18.4 WNW 9 12 1006.1 - - - - - - - - -
25/07:00am 18.3 WNW 8 11 1006.1 - - - - - - - - -
25/06:30am 18.1 WNW 8 11 1006.0 - - - - - - - - -
25/06:00am 18.1 WNW 9 12 1005.7 - - - - - - - - -
25/05:30am 18.2 WNW 11 14 1005.4 - - - - - - - - -
25/05:00am 18.7 W 8 13 1005.0 - - - - - - - - -
25/04:30am 18.6 W 3 4 1004.8 - - - - - - - - -
25/04:00am 19.0 W 3 5 1004.6 - - - - - - - - -
25/03:30am 19.5 WSW 5 8 1004.1 - - - - - - - - -
25/03:00am 20.2 WSW 6 12 1003.7 - - - - - - - - -
25/02:30am 20.9 WSW 9 14 1003.4 - - - - - - - - -
25/02:00am 21.3 WSW 7 12 1003.2 - - - - - - - - -
25/01:30am 22.0 WSW 9 12 1003.1 - - - - - - - - -
25/01:00am 22.5 W 10 15 1002.9 - - - - - - - - -
25/12:30am 22.8 W 11 16 1002.7 - - - - - - - - -
25/12:00am 22.8 W 11 16 1002.8 - - - - - - - - -
 
Date/Time
EST
Temp
°C
Wind Pressure Rain since
9am
mm
Weather Cloud Vis
km
Sea
Height
m
Swell
Dir  Spd
kts
Gust
kts
hPa Trend Height
m
Period
s
Dir
24/11:30pm 23.2 W 13 21 1002.8 - - - - - - - - -
24/11:00pm 23.9 W 19 30 1002.5 - - - - - - - - -
24/10:57pm 23.8 W 18 30 1002.5 - - - - - - - - -
24/10:30pm 23.5 W 17 24 1002.4 - - - - - - - - -
24/10:00pm 23.8 W 15 26 1002.5 - - - - - - - - -
24/09:33pm 23.7 WNW 17 29 1002.6 - - - - - - - - -
24/09:30pm 23.7 WNW 15 24 1002.7 - - - - - - - - -
24/09:00pm 23.7 WNW 17 32 1002.8 - - - - - - - - -
24/08:33pm 23.7 WNW 19 30 1002.9 - - - - - - - - -
24/08:30pm 23.9 WNW 20 30 1002.8 - - - - - - - - -
24/08:00pm 23.9 WNW 16 27 1002.8 - - - - - - - - -
24/07:30pm 23.8 WNW 15 27 1002.8 - - - - - - - - -
24/07:02pm 23.7 WNW 15 29 1002.6 - - - - - - - - -
24/07:00pm 23.9 WNW 14 29 1002.6 - - - - - - - - -
24/06:30pm 23.8 WNW 12 18 1002.1 - - - - - - - - -
24/06:00pm 24.2 WNW 14 23 1001.7 - - - - - - - - -
24/05:41pm 24.7 WNW 18 30 1001.6 - - - - - - - - -
24/05:30pm 24.8 WNW 18 27 1001.5 - - - - - - - - -
24/05:08pm 25.0 WNW 19 30 1001.1 - - - - - - - - -
24/05:00pm 25.2 WNW 21 30 1001.0 - - - - - - - - -
24/04:30pm 25.4 WNW 21 31 1000.8 - - - - - - - - -
24/04:01pm 25.5 WNW 20 34 1000.7 - - - - - - - - -
24/04:00pm 25.6 WNW 20 30 1000.6 - - - - - - - - -
24/03:30pm 26.0 WNW 21 32 1000.6 - - - - - - - - -
24/03:03pm 26.4 WNW 18 37 1000.7 - - - - - - - - -
24/03:00pm 26.3 WNW 18 27 1000.6 - - - - - - - - -
24/02:30pm 26.5 WNW 25 37 1000.4 - - - - - - - - -
24/02:14pm 26.3 WNW 26 40 1000.6 - - - - - - - - -
24/02:13pm 26.4 WNW 26 40 1000.8 - - - - - - - - -
24/02:00pm 26.2 WNW 19 33 1000.6 - - - - - - - - -
24/01:30pm 26.5 WNW 21 31 1000.9 - - - - - - - - -
24/01:00pm 26.6 WNW 22 32 1001.1 - - - - - - - - -
24/12:33pm 26.7 WNW 19 29 1001.4 - - - - - - - - -
24/12:30pm 26.6 WNW 20 29 1001.3 - - - - - - - - -
24/12:00pm 26.0 WNW 22 37 1001.8 - - - - - - - - -
24/11:30am 26.0 WNW 21 31 1001.9 - - - - - - - - -
24/11:06am 25.8 WNW 15 27 1002.3 - - - - - - - - -
24/11:00am 26.3 WNW 14 23 1002.1 - - - - - - - - -
24/10:30am 25.5 NW 17 28 1002.0 - - - - - - - - -
24/10:27am 25.4 NW 16 29 1002.1 - - - - - - - - -
24/10:01am 25.1 WNW 20 31 1002.0 - - - - - - - - -
24/10:00am 25.1 WNW 20 30 1002.0 - - - - - - - - -
24/09:47am 24.7 W 23 33 1002.2 - - - - - - - - -
24/09:30am 24.6 W 19 29 1002.9 - - - - - - - - -
24/09:00am 24.7 W 19 31 1002.5 - - - - - - - - -
24/08:45am 24.4 SW 10 29 1002.5 - - - - - - - - -
24/08:42am 24.3 SSW 6 23 1002.5 - - - - - - - - -
24/08:30am 19.2 SSE 5 9 1002.2 - - - - - - - - -
24/08:00am 22.7 S 3 6 1001.8 - - - - - - - - -
24/07:30am 22.0 SSW 4 7 1001.7 - - - - - - - - -
24/07:00am 21.0 SSW 6 12 1001.5 - - - - - - - - -
24/06:30am 23.5 SW 7 12 1001.2 - - - - - - - - -
24/06:00am 25.5 WSW 9 15 1001.1 - - - - - - - - -
24/05:30am 26.2 WSW 15 23 999.3 - - - - - - - - -
24/05:00am 29.3 SSW 6 16 998.0 - - - - - - - - -
24/04:30am 24.0 NE 6 10 996.7 - - - - - - - - -
24/04:00am 24.8 NE 10 17 995.8 - - - - - - - - -
24/03:55am 24.4 NE 12 17 995.5 - - - - - - - - -
24/03:30am 29.6 NNW 11 18 995.9 - - - - - - - - -
24/03:00am 29.0 NNE 3 13 996.4 - - - - - - - - -
24/02:57am 29.7 NE 3 13 996.1 - - - - - - - - -
24/02:30am 24.3 NE 10 14 996.2 - - - - - - - - -
24/02:09am 23.9 NE 7 12 995.9 - - - - - - - - -
24/02:00am 29.1 NNW 6 11 996.7 - - - - - - - - -
24/01:30am 29.8 NW 12 23 996.2 - - - - - - - - -
24/01:23am 31.7 NW 11 23 995.8 - - - - - - - - -
24/01:00am 26.6 NE 9 18 995.8 - - - - - - - - -
24/12:30am 23.1 NE 17 25 996.4 - - - - - - - - -
24/12:00am 23.8 NE 14 19 996.9 - - - - - - - - -
 
Date/Time
EST
Temp
°C
Wind Pressure Rain since
9am
mm
Weather Cloud Vis
km
Sea
Height
m
Swell
Dir  Spd
kts
Gust
kts
hPa Trend Height
m
Period
s
Dir
23/11:30pm 23.5 NE 12 18 996.9 - - - - - - - - -
23/11:00pm 22.5 NE 12 19 998.4 - - - - - - - - -
23/10:30pm 23.0 NE 12 17 998.7 - - - - - - - - -
23/10:00pm 23.0 NE 11 17 999.2 - - - - - - - - -
23/09:30pm 21.4 NE 9 13 999.2 - - - - - - - - -
23/09:00pm 22.1 NE 12 15 999.1 - - - - - - - - -
23/08:30pm 21.8 NE 12 15 998.9 - - - - - - - - -
23/08:00pm 21.9 NE 11 15 999.1 - - - - - - - - -
23/07:30pm 21.3 NE 10 14 999.3 - - - - - - - - -
23/07:00pm 20.9 NNE 8 11 999.4 - - - - - - - - -
23/06:30pm 20.6 NNE 8 14 998.9 - - - - - - - - -
23/06:00pm 20.8 N 10 14 999.1 - - - - - - - - -
23/05:30pm 21.8 NNE 11 17 999.0 - - - - - - - - -
23/05:00pm 21.0 NNE 9 15 999.1 - - - - - - - - -
23/04:30pm 21.9 NNE 12 17 999.0 - - - - - - - - -
23/04:00pm 22.1 NNE 15 23 999.1 - - - - - - - - -
23/03:54pm 23.1 NNE 11 23 998.9 - - - - - - - - -
23/03:30pm 20.6 N 7 12 999.4 - - - - - - - - -
23/03:00pm 21.4 N 9 13 999.6 - - - - - - - - -
23/02:30pm 21.4 NE 12 17 999.7 - - - - - - - - -
23/02:00pm 21.9 NE 13 16 1000.2 - - - - - - - - -
23/01:30pm 20.8 NE 11 15 1000.8 - - - - - - - - -
23/01:00pm 20.4 NE 12 16 1001.5 - - - - - - - - -
23/12:30pm 20.4 NE 9 13 1002.6 - - - - - - - - -
23/12:00pm 20.0 ENE 10 14 1003.3 - - - - - - - - -
23/11:30am 20.6 ENE 9 13 1004.0 - - - - - - - - -
23/11:00am 24.1 NE 7 9 1004.7 - - - - - - - - -
23/10:30am 24.4 NE 9 14 1005.3 - - - - - - - - -
23/10:00am 24.4 NE 8 13 1005.9 - - - - - - - - -
23/09:30am 23.3 NE 7 13 1006.3 - - - - - - - - -
23/09:00am 23.6 NE 6 11 1006.7 - - - - - - - - -
23/08:30am 22.8 NE 5 10 1006.9 - - - - - - - - -
23/08:00am 23.1 ENE 4 7 1007.1 - - - - - - - - -
23/07:30am 23.6 SSE 3 6 1007.2 - - - - - - - - -
23/07:00am 23.1 ESE 4 5 1007.1 - - - - - - - - -
23/06:30am 22.8 SE 3 4 1007.1 - - - - - - - - -
23/06:00am 23.6 WNW 6 10 1007.1 - - - - - - - - -
23/05:30am 23.8 SW 2 6 1007.0 - - - - - - - - -
23/05:00am 20.6 ESE 4 6 1007.2 - - - - - - - - -
23/04:30am 19.4 NE 3 5 1007.4 - - - - - - - - -
23/04:00am 19.3 NE 2 6 1007.6 - - - - - - - - -
23/03:30am 19.4 ENE 3 6 1007.7 - - - - - - - - -
23/03:00am 18.4 NNE 2 4 1007.8 - - - - - - - - -
23/02:30am 18.2 E 5 8 1008.1 - - - - - - - - -

Other Formats:

Comma delimited format used in spreadsheet applications
http://www.bom.gov.au/fwo/IDN60701/IDN60701.95745.axf

JavaScript Object Notation format (JSON) in row-major order
http://www.bom.gov.au/fwo/IDN60701/IDN60701.95745.json